createdAt,value
2022-08-20T00:01:09.374Z,33.20
2022-08-20T00:03:44.792Z,30.13
2022-08-20T00:06:20.896Z,31.95
2022-08-20T00:08:48.090Z,30.80
2022-08-20T00:11:21.145Z,30.10
2022-08-20T00:13:54.192Z,31.58
2022-08-20T00:16:24.145Z,33.10
2022-08-20T00:18:51.297Z,29.52
2022-08-20T00:21:20.492Z,30.75
2022-08-20T00:23:50.881Z,31.95
2022-08-20T00:26:19.042Z,30.63
2022-08-20T00:28:46.608Z,30.98
2022-08-20T00:31:17.980Z,31.85
2022-08-20T00:33:45.651Z,30.75
2022-08-20T00:36:12.339Z,31.65
2022-08-20T00:38:42.736Z,28.70
2022-08-20T00:41:18.591Z,30.33
2022-08-20T00:43:50.938Z,29.40
2022-08-20T00:46:31.755Z,29.70
2022-08-20T00:49:01.619Z,29.80
2022-08-20T00:51:47.552Z,27.27
2022-08-20T00:54:29.874Z,29.42
2022-08-20T00:57:08.494Z,29.55
2022-08-20T00:59:40.196Z,30.02
2022-08-20T01:02:13.284Z,30.30
2022-08-20T01:04:40.572Z,31.00
2022-08-20T01:07:07.474Z,29.20
2022-08-20T01:09:57.432Z,30.25
2022-08-20T01:12:25.724Z,30.90
2022-08-20T01:14:52.947Z,30.25
2022-08-20T01:17:23.698Z,30.48
2022-08-20T01:20:03.773Z,30.20
2022-08-20T01:23:17.031Z,32.20
2022-08-20T01:26:09.094Z,31.48
2022-08-20T01:28:55.437Z,32.15
2022-08-20T01:31:28.849Z,30.80
2022-08-20T01:33:58.573Z,32.38
2022-08-20T01:36:45.556Z,33.08
2022-08-20T01:39:17.690Z,33.20
2022-08-20T01:42:21.137Z,31.45
2022-08-20T01:44:47.847Z,32.63
2022-08-20T01:47:31.178Z,32.00
2022-08-20T01:50:28.839Z,31.98
2022-08-20T01:53:10.334Z,31.70
2022-08-20T01:55:38.408Z,31.92
2022-08-20T01:58:05.575Z,32.65
2022-08-20T02:00:35.621Z,33.67
2022-08-20T02:03:03.546Z,32.60
2022-08-20T02:05:31.159Z,32.60
2022-08-20T02:07:58.080Z,31.65
2022-08-20T02:10:25.090Z,33.15
2022-08-20T02:12:52.362Z,34.08
2022-08-20T02:15:35.017Z,30.95
2022-08-20T02:18:10.801Z,32.08
2022-08-20T02:20:38.360Z,32.13
2022-08-20T02:23:07.295Z,31.27
2022-08-20T02:25:37.305Z,32.90
2022-08-20T02:28:13.370Z,32.47
2022-08-20T02:30:46.851Z,33.78
2022-08-20T02:33:17.295Z,32.13
2022-08-20T02:35:48.924Z,32.13
2022-08-20T02:38:16.255Z,33.35
2022-08-20T02:40:45.420Z,35.47
2022-08-20T02:43:13.037Z,33.88
2022-08-20T02:45:44.075Z,33.63
2022-08-20T02:48:23.546Z,33.60
2022-08-20T02:50:58.566Z,32.85
2022-08-20T02:53:30.820Z,34.08
2022-08-20T02:55:57.796Z,34.63
2022-08-20T02:58:24.664Z,34.60
2022-08-20T03:00:51.773Z,33.28
2022-08-20T03:03:22.429Z,34.70
2022-08-20T03:05:53.172Z,33.33
2022-08-20T03:08:21.914Z,34.85
2022-08-20T03:10:50.360Z,34.28
2022-08-20T03:13:18.008Z,35.92
2022-08-20T03:15:58.800Z,35.40
2022-08-20T03:18:34.584Z,36.00
2022-08-20T03:21:01.857Z,34.28
2022-08-20T03:23:28.870Z,35.65
2022-08-20T03:25:55.815Z,35.08
2022-08-20T03:28:22.764Z,34.25
2022-08-20T03:30:51.345Z,34.05
2022-08-20T03:33:20.208Z,36.55
2022-08-20T03:35:47.790Z,34.67
2022-08-20T03:38:16.492Z,33.95
2022-08-20T03:40:43.876Z,37.15
2022-08-20T03:43:12.327Z,34.78
2022-08-20T03:45:41.746Z,33.53
2022-08-20T03:48:12.330Z,34.50
2022-08-20T03:50:41.752Z,35.08
2022-08-20T03:53:14.734Z,34.22
2022-08-20T03:55:54.090Z,34.20
2022-08-20T03:58:36.316Z,36.25
2022-08-20T04:01:06.695Z,36.65
2022-08-20T04:03:33.887Z,37.38
2022-08-20T04:06:00.558Z,38.00
2022-08-20T04:08:31.979Z,39.75
2022-08-20T04:10:59.819Z,39.47
2022-08-20T04:13:29.442Z,39.72
2022-08-20T04:15:57.867Z,40.28
2022-08-20T04:18:26.257Z,42.80
2022-08-20T04:20:54.264Z,43.53
2022-08-20T04:23:22.143Z,44.75
2022-08-20T04:25:49.053Z,44.58
2022-08-20T04:28:25.394Z,44.88
2022-08-20T04:30:52.487Z,43.13
2022-08-20T04:33:34.051Z,43.10
2022-08-20T04:36:05.932Z,42.88
2022-08-20T04:38:48.233Z,40.97
2022-08-20T04:41:22.609Z,44.60
2022-08-20T04:43:53.889Z,41.75
2022-08-20T04:46:23.878Z,41.80
2022-08-20T04:48:50.831Z,39.63
2022-08-20T04:51:18.783Z,42.20
2022-08-20T04:53:52.308Z,41.25
2022-08-20T04:56:31.885Z,41.83
2022-08-20T04:59:01.530Z,40.00
2022-08-20T05:01:28.829Z,38.47
2022-08-20T05:03:57.395Z,37.67
2022-08-20T05:06:29.778Z,37.90
2022-08-20T05:08:58.714Z,37.25
2022-08-20T05:11:35.630Z,39.38
2022-08-20T05:14:08.997Z,40.40
2022-08-20T05:16:40.613Z,39.03
2022-08-20T05:19:10.791Z,40.10
2022-08-20T05:21:38.072Z,41.72
2022-08-20T05:24:06.826Z,42.33
2022-08-20T05:26:33.759Z,41.67
2022-08-20T05:29:00.383Z,42.55
2022-08-20T05:31:31.891Z,42.45
2022-08-20T05:34:09.552Z,42.35
2022-08-20T05:36:46.984Z,42.47
2022-08-20T05:39:18.976Z,43.30
2022-08-20T05:41:45.623Z,42.67
2022-08-20T05:44:14.118Z,43.80
2022-08-20T05:46:44.355Z,42.17
2022-08-20T05:49:15.520Z,43.95
2022-08-20T05:51:43.149Z,42.47
2022-08-20T05:54:09.906Z,43.03
2022-08-20T05:56:37.212Z,42.58
2022-08-20T05:59:07.394Z,42.10
2022-08-20T06:01:37.523Z,42.85
2022-08-20T06:04:23.908Z,38.63
2022-08-20T06:07:05.218Z,38.35
2022-08-20T06:09:32.877Z,39.67
2022-08-20T06:12:06.194Z,40.35
2022-08-20T06:14:33.939Z,40.97
2022-08-20T06:17:15.406Z,40.05
2022-08-20T06:19:44.771Z,41.45
2022-08-20T06:22:18.188Z,38.95
2022-08-20T06:24:50.303Z,38.92
2022-08-20T06:27:17.425Z,38.55
2022-08-20T06:29:44.434Z,36.97
2022-08-20T06:32:11.474Z,37.75
2022-08-20T06:34:38.214Z,38.75
2022-08-20T06:37:30.941Z,38.38
2022-08-20T06:40:05.827Z,38.80
2022-08-20T06:42:32.791Z,37.42
2022-08-20T06:45:00.441Z,37.10
2022-08-20T06:47:27.109Z,37.78
2022-08-20T06:49:53.782Z,36.38
2022-08-20T06:52:20.460Z,36.92
2022-08-20T06:54:58.530Z,36.78
2022-08-20T06:57:25.908Z,40.15
2022-08-20T06:59:55.244Z,38.22
2022-08-20T07:02:29.274Z,37.72
2022-08-20T07:04:57.243Z,35.33
2022-08-20T07:07:23.976Z,38.70
2022-08-20T07:09:58.436Z,38.53
2022-08-20T07:12:25.546Z,38.08
2022-08-20T07:14:52.137Z,36.63
2022-08-20T07:17:18.771Z,38.88
2022-08-20T07:19:45.438Z,37.58
2022-08-20T07:22:14.563Z,36.25
2022-08-20T07:24:43.248Z,38.08
2022-08-20T07:27:12.755Z,39.05
2022-08-20T07:29:57.810Z,38.22
2022-08-20T07:32:39.784Z,37.35
2022-08-20T07:35:16.432Z,38.05
2022-08-20T07:37:47.017Z,37.25
2022-08-20T07:40:26.165Z,35.92
2022-08-20T07:42:55.229Z,36.45
2022-08-20T07:45:23.113Z,34.08
2022-08-20T07:47:50.630Z,36.10
2022-08-20T07:50:19.899Z,35.28
2022-08-20T07:52:47.329Z,35.20
2022-08-20T07:55:16.420Z,34.20
2022-08-20T07:57:46.847Z,35.30
2022-08-20T08:00:15.121Z,32.47
2022-08-20T08:02:42.347Z,32.58
2022-08-20T08:05:09.827Z,32.83
2022-08-20T08:07:38.254Z,33.00
2022-08-20T08:10:09.622Z,31.00
2022-08-20T08:12:47.468Z,31.60
2022-08-20T08:15:18.757Z,30.98
2022-08-20T08:17:48.646Z,29.77
2022-08-20T08:20:16.333Z,28.60
2022-08-20T08:22:44.176Z,27.10
2022-08-20T08:25:13.216Z,27.10
2022-08-20T08:27:40.650Z,26.20
2022-08-20T08:30:09.329Z,25.05
2022-08-20T08:32:37.625Z,25.60
2022-08-20T08:35:08.882Z,21.95
2022-08-20T08:37:37.749Z,21.08
2022-08-20T08:40:05.817Z,21.80
2022-08-20T08:42:32.330Z,22.63
2022-08-20T08:45:00.460Z,22.25
2022-08-20T08:47:34.556Z,20.85
2022-08-20T08:50:02.619Z,20.33
2022-08-20T08:52:33.559Z,21.17
2022-08-20T08:55:05.664Z,18.02
2022-08-20T08:57:32.762Z,17.88
2022-08-20T09:00:13.424Z,15.27
2022-08-20T09:02:42.485Z,15.63
2022-08-20T09:05:17.093Z,14.93
2022-08-20T09:07:48.623Z,14.20
2022-08-20T09:10:16.160Z,13.35
2022-08-20T09:12:49.887Z,11.57
2022-08-20T09:15:18.765Z,11.65
2022-08-20T09:17:45.398Z,10.80
2022-08-20T09:20:12.124Z,8.98
2022-08-20T09:22:38.803Z,9.20
2022-08-20T09:25:06.414Z,8.30
2022-08-20T09:27:33.426Z,8.88
2022-08-20T09:30:00.289Z,7.45
2022-08-20T09:32:27.024Z,6.32
2022-08-20T09:34:56.306Z,5.88
2022-08-20T09:37:26.870Z,5.70
2022-08-20T09:39:53.806Z,5.70
2022-08-20T09:42:25.268Z,4.88
2022-08-20T09:44:52.251Z,5.40
2022-08-20T09:47:19.380Z,5.18
2022-08-20T09:49:46.636Z,4.80
2022-08-20T09:52:38.962Z,4.95
2022-08-20T09:55:42.282Z,4.78
2022-08-20T09:58:32.357Z,4.82
2022-08-20T10:01:16.984Z,4.60
2022-08-20T10:03:47.903Z,4.60
2022-08-20T10:06:16.693Z,5.03
2022-08-20T10:08:44.342Z,4.90
2022-08-20T10:11:11.355Z,5.15
2022-08-20T10:13:38.320Z,4.60
2022-08-20T10:16:05.647Z,4.72
2022-08-20T10:18:32.585Z,4.90
2022-08-20T10:20:59.250Z,4.53
2022-08-20T10:23:26.011Z,4.85
2022-08-20T10:25:52.619Z,4.97
2022-08-20T10:28:19.450Z,5.45
2022-08-20T10:30:46.938Z,4.75
2022-08-20T10:33:13.635Z,5.25
2022-08-20T10:35:40.336Z,5.32
2022-08-20T10:38:07.058Z,5.20
2022-08-20T10:40:33.677Z,4.97
2022-08-20T10:43:00.345Z,5.10
2022-08-20T10:45:26.966Z,4.40
2022-08-20T10:47:53.616Z,4.47
2022-08-20T10:50:20.634Z,4.40
2022-08-20T10:52:47.746Z,4.63
2022-08-20T10:55:14.649Z,4.18
2022-08-20T10:57:43.354Z,4.95
2022-08-20T11:00:14.298Z,4.45
2022-08-20T11:02:41.280Z,4.78
2022-08-20T11:05:09.056Z,5.05
2022-08-20T11:07:49.909Z,4.97
2022-08-20T11:10:24.079Z,4.38
2022-08-20T11:12:50.765Z,5.20
2022-08-20T11:15:17.431Z,4.85
2022-08-20T11:17:45.230Z,6.10
2022-08-20T11:20:15.622Z,5.78
2022-08-20T11:22:42.249Z,6.90
2022-08-20T11:25:09.874Z,6.10
2022-08-20T11:27:44.261Z,5.35
2022-08-20T12:39:34.817Z,11.70
2022-08-20T12:42:04.409Z,10.98
2022-08-20T12:44:32.497Z,11.48
2022-08-20T12:47:18.349Z,11.50
2022-08-20T12:49:49.206Z,12.30
2022-08-20T12:52:18.466Z,11.60
2022-08-20T12:54:45.750Z,11.95
2022-08-20T12:57:46.260Z,11.65
2022-08-20T13:00:17.507Z,11.00
2022-08-20T13:02:45.185Z,9.85
2022-08-20T13:05:13.185Z,10.30
2022-08-20T13:07:41.359Z,8.40
2022-08-20T13:10:26.432Z,9.20
2022-08-20T13:12:53.187Z,8.43
2022-08-20T13:15:21.239Z,6.63
2022-08-20T13:17:59.966Z,5.93
2022-08-20T13:20:31.731Z,5.57
2022-08-20T13:23:03.021Z,5.47
2022-08-20T13:25:29.823Z,5.07
2022-08-20T13:27:59.902Z,4.75
2022-08-20T13:30:27.236Z,4.93
2022-08-20T13:32:54.076Z,5.03
2022-08-20T13:35:21.113Z,5.05
2022-08-20T13:37:50.853Z,4.60
2022-08-20T13:40:18.667Z,5.07
2022-08-20T13:42:45.661Z,4.25
2022-08-20T13:45:12.452Z,5.43
2022-08-20T13:47:41.274Z,5.03
2022-08-20T13:50:19.660Z,5.20
2022-08-20T13:52:46.706Z,4.70
2022-08-20T13:55:19.443Z,5.05
2022-08-20T13:57:46.649Z,5.30
2022-08-20T14:00:20.371Z,5.18
2022-08-20T14:02:49.821Z,5.03
2022-08-20T14:05:17.286Z,4.90
2022-08-20T14:07:46.257Z,4.50
2022-08-20T14:10:20.773Z,4.90
2022-08-20T14:12:48.236Z,4.72
2022-08-20T14:15:15.134Z,4.53
2022-08-20T14:17:50.143Z,4.53
2022-08-20T14:20:20.991Z,4.32
2022-08-20T14:22:47.635Z,4.32
2022-08-20T14:25:17.634Z,4.53
2022-08-20T14:27:45.121Z,4.45
2022-08-20T14:30:17.462Z,4.70
2022-08-20T14:32:44.219Z,5.07
2022-08-20T14:35:11.932Z,5.22
2022-08-20T14:37:47.229Z,4.65
2022-08-20T14:40:17.647Z,5.55
2022-08-20T14:42:47.793Z,4.85
2022-08-20T14:45:22.491Z,5.32
2022-08-20T14:47:59.430Z,5.10
2022-08-20T14:50:33.714Z,5.30
2022-08-20T14:53:01.737Z,4.90
2022-08-20T14:55:35.822Z,5.40
2022-08-20T14:58:09.605Z,5.22
2022-08-20T15:00:36.381Z,5.82
2022-08-20T15:03:03.162Z,5.22
2022-08-20T15:05:30.112Z,4.68
2022-08-20T15:07:58.144Z,5.00
2022-08-20T15:10:32.692Z,4.68
2022-08-20T15:13:00.335Z,5.28
2022-08-20T15:15:27.789Z,4.82
2022-08-20T15:17:59.977Z,4.70
2022-08-20T15:20:31.058Z,5.05
2022-08-20T15:22:58.258Z,4.60
2022-08-20T15:25:36.824Z,4.22
2022-08-20T15:28:08.494Z,4.15
2022-08-20T15:30:36.688Z,4.38
2022-08-20T15:33:03.613Z,4.40
2022-08-20T15:35:30.637Z,4.65
2022-08-20T15:37:59.441Z,4.85
2022-08-20T15:40:29.299Z,5.20
2022-08-20T15:43:02.541Z,4.50
2022-08-20T15:45:29.989Z,4.47
2022-08-20T15:48:08.183Z,4.40
2022-08-20T15:51:14.147Z,4.28
2022-08-20T15:54:07.589Z,4.25
2022-08-20T15:56:50.204Z,4.60
2022-08-20T15:59:16.842Z,4.35
2022-08-20T16:02:43.156Z,4.70
2022-08-20T16:05:25.231Z,3.95
2022-08-20T16:08:34.585Z,4.68
2022-08-20T16:11:26.325Z,3.75
2022-08-20T16:14:17.956Z,4.28
2022-08-20T16:17:01.429Z,3.80
2022-08-20T16:19:48.025Z,4.18
2022-08-20T16:22:17.434Z,3.35
2022-08-20T16:24:44.091Z,3.67
2022-08-20T16:27:51.406Z,3.50
2022-08-20T16:31:03.265Z,2.65
2022-08-20T16:33:58.280Z,2.72
2022-08-20T16:36:35.073Z,2.55
2022-08-20T16:39:08.051Z,3.10
2022-08-20T16:41:41.938Z,2.80
2022-08-20T16:44:46.370Z,2.53
2022-08-20T16:47:33.107Z,2.97
2022-08-20T16:50:11.711Z,3.05
2022-08-20T16:52:44.169Z,2.67
2022-08-20T16:55:12.188Z,2.40
2022-08-20T16:57:39.010Z,2.90
2022-08-20T17:00:06.961Z,2.70
2022-08-20T17:02:33.681Z,2.95
2022-08-20T17:05:05.562Z,3.40
2022-08-20T17:08:03.535Z,3.20
2022-08-20T17:10:52.268Z,3.15
2022-08-20T17:13:31.473Z,3.92
2022-08-20T17:16:08.204Z,3.50
2022-08-20T17:18:51.199Z,3.20
2022-08-20T17:21:31.779Z,3.15
2022-08-20T17:24:03.622Z,3.22
2022-08-20T17:26:56.948Z,3.10
2022-08-20T17:29:32.064Z,3.20
2022-08-20T17:32:09.135Z,3.13
2022-08-20T17:35:04.482Z,3.40
2022-08-20T17:37:50.233Z,3.38
2022-08-20T17:40:27.957Z,3.22
2022-08-20T17:42:58.511Z,3.20
2022-08-20T17:45:36.644Z,3.30
2022-08-20T17:48:08.353Z,3.10
2022-08-20T17:50:41.079Z,3.47
2022-08-20T17:53:48.102Z,3.45
2022-08-20T17:56:29.442Z,3.13
2022-08-20T17:59:59.532Z,3.13
2022-08-20T18:02:15.397Z,2.75
2022-08-20T18:04:42.589Z,3.50
2022-08-20T18:07:31.274Z,2.97
2022-08-20T18:10:07.479Z,3.33
2022-08-20T18:12:46.080Z,3.13
2022-08-20T18:15:24.234Z,3.05
2022-08-20T18:18:09.431Z,3.42
2022-08-20T18:21:23.066Z,2.95
2022-08-20T18:24:05.779Z,3.03
2022-08-20T18:26:37.327Z,2.88
2022-08-20T18:29:19.819Z,2.92
2022-08-20T18:31:53.041Z,2.70
2022-08-20T18:34:41.153Z,2.72
2022-08-20T18:37:26.663Z,2.65
2022-08-20T18:40:16.994Z,2.70
2022-08-20T18:42:45.757Z,2.80
2022-08-20T18:45:12.898Z,2.50
2022-08-20T18:47:46.590Z,2.67
2022-08-20T18:50:30.527Z,3.00
2022-08-20T18:53:34.279Z,3.30
2022-08-20T18:56:15.307Z,2.83
2022-08-20T18:59:05.776Z,3.00
2022-08-20T19:01:37.435Z,3.88
2022-08-20T19:04:28.422Z,4.18
2022-08-20T19:07:04.001Z,6.10
2022-08-20T19:10:12.786Z,3.80
2022-08-20T19:13:59.477Z,4.32
2022-08-20T19:16:42.136Z,3.55
2022-08-20T19:19:19.295Z,3.33
2022-08-20T19:21:46.213Z,3.55
2022-08-20T19:24:18.507Z,4.13
2022-08-20T19:27:01.292Z,3.78
2022-08-20T19:29:35.294Z,3.75
2022-08-20T19:32:08.340Z,3.67
2022-08-20T19:34:36.831Z,5.03
2022-08-20T19:37:34.747Z,5.78
2022-08-20T19:40:18.458Z,5.13
2022-08-20T19:42:46.011Z,4.22
2022-08-20T19:45:27.297Z,3.85
2022-08-20T19:48:27.815Z,3.88
2022-08-20T19:51:02.657Z,4.50
2022-08-20T19:53:36.461Z,4.35
2022-08-20T19:56:10.597Z,4.28
2022-08-20T19:58:37.480Z,4.55
2022-08-20T20:01:20.410Z,4.28
2022-08-20T20:04:07.014Z,4.75
2022-08-20T20:06:43.349Z,5.13
2022-08-20T20:09:29.935Z,4.50
2022-08-20T20:12:02.544Z,4.45
2022-08-20T20:14:36.011Z,4.60
2022-08-20T20:17:08.702Z,4.18
2022-08-20T20:19:59.135Z,4.93
2022-08-20T20:22:33.715Z,5.45
2022-08-20T20:25:42.915Z,5.25
2022-08-20T20:28:21.294Z,5.15
2022-08-20T20:30:48.834Z,6.90
2022-08-20T20:33:29.861Z,6.90
2022-08-20T20:36:15.962Z,6.90
2022-08-20T20:39:04.537Z,6.55
2022-08-20T20:41:32.583Z,6.85
2022-08-20T20:44:26.265Z,6.00
2022-08-20T20:46:59.067Z,6.13
2022-08-20T20:49:34.804Z,6.57
2022-08-20T20:52:17.504Z,6.32
2022-08-20T20:54:46.814Z,5.57
2022-08-20T20:57:19.633Z,5.55
2022-08-20T21:00:14.346Z,6.10
2022-08-20T21:02:41.874Z,6.93
2022-08-20T21:05:10.710Z,7.03
2022-08-20T21:07:51.201Z,7.30
2022-08-20T21:10:22.716Z,7.28
2022-08-20T21:12:52.868Z,7.32
2022-08-20T21:15:22.091Z,6.75
2022-08-20T21:17:48.948Z,6.95
2022-08-20T21:20:15.993Z,6.88
2022-08-20T21:22:42.719Z,6.78
2022-08-20T21:25:09.647Z,7.43
2022-08-20T21:27:36.941Z,7.38
2022-08-20T21:30:05.806Z,6.80
2022-08-20T21:32:32.402Z,7.07
2022-08-20T21:34:59.066Z,7.32
2022-08-20T21:37:25.680Z,7.00
2022-08-20T21:39:52.510Z,7.82
2022-08-20T21:42:29.256Z,8.52
2022-08-20T21:44:58.309Z,7.90
2022-08-20T21:47:25.465Z,8.02
2022-08-20T21:49:52.503Z,7.22
2022-08-20T21:52:19.275Z,7.97
2022-08-20T21:54:45.911Z,7.60
2022-08-20T21:57:22.707Z,7.88
2022-08-20T21:59:49.716Z,7.95
2022-08-20T22:02:18.308Z,8.25
2022-08-20T22:04:45.514Z,8.23
2022-08-20T22:07:12.573Z,8.50
2022-08-20T22:09:39.435Z,8.43
2022-08-20T22:12:19.039Z,8.15
2022-08-20T22:14:46.618Z,8.90
2022-08-20T22:17:14.794Z,8.35
2022-08-20T22:19:41.551Z,7.90
2022-08-20T22:22:14.468Z,8.27
2022-08-20T22:24:42.361Z,7.63
2022-08-20T22:27:09.070Z,7.63
2022-08-20T22:29:35.693Z,7.60
2022-08-20T22:32:02.778Z,6.68
2022-08-20T22:34:33.112Z,7.63
2022-08-20T22:37:01.532Z,8.32
2022-08-20T22:39:28.435Z,7.82
2022-08-20T22:41:55.329Z,7.25
2022-08-20T22:44:22.026Z,7.57
2022-08-20T22:46:53.878Z,7.63
2022-08-20T22:49:26.775Z,6.55
2022-08-20T22:51:53.536Z,5.95
2022-08-20T22:54:23.269Z,5.68
2022-08-20T22:56:51.897Z,5.50
2022-08-20T22:59:20.602Z,5.43
2022-08-20T23:01:47.818Z,4.75
2022-08-20T23:04:26.703Z,4.85
2022-08-20T23:06:56.358Z,4.45
2022-08-20T23:09:24.417Z,4.25
2022-08-20T23:11:52.106Z,4.90
2022-08-20T23:14:19.637Z,3.90
2022-08-20T23:16:51.757Z,4.07
2022-08-20T23:19:22.599Z,3.60
